logo tempoitalia

Diretta Meteo Springfield, Stati Uniti (USA)lunedì 31 agosto ore 00:52

Mappa
Sereno 26 °C Sereno 24 Ore: T.min 22 T.max 36
Ponente Sud/Sud-Est Km/h 20.3 Punto di rugiada: 17 °C Umidità: 57% Visibilità: 10 Km
Il sole sorge alle: 06:43 Il sole tramonta alle: 19:43
31 Agosto 2026 00:52 tempo osservato: Sereno Sereno 26 57 1016 vento: Nord S/SE 20.3
30 Agosto 2026 23:52 tempo osservato: Sereno Sereno 27 54 1016 vento: Nord S/SE 18.5
30 Agosto 2026 22:52 tempo osservato: Sereno Sereno 28 51 1015 vento: Nord S/SE 18.5
30 Agosto 2026 21:52 tempo osservato: Sereno Sereno 29 48 1015 vento: Nord S 22.2
30 Agosto 2026 20:52 tempo osservato: Sereno Sereno 31 40 1015 vento: Nord S/SE 16.7
30 Agosto 2026 19:52 tempo osservato: Sereno Sereno 31 40 1014 vento: Nord S/SE 14.8
30 Agosto 2026 18:52 tempo osservato: Sereno Sereno 34 34 1014 vento: Nord S/SE 14.8
30 Agosto 2026 17:52 tempo osservato: Sereno Sereno 34 32 1014 vento: Nord S/SE 18.5
30 Agosto 2026 16:52 tempo osservato: Sereno Sereno 36 28 1014 vento: Nord S/SE 20.3
30 Agosto 2026 15:52 tempo osservato: Poco Nuvoloso Poco Nuvoloso 36 30 1015 vento: Nord S/SE 16.7
30 Agosto 2026 14:52 tempo osservato: Poco Nuvoloso Poco Nuvoloso 36 30 1015 vento: Nord N 9.3
30 Agosto 2026 13:52 tempo osservato: Sereno Sereno 36 30 1016 vento: Nord S/SO 16.7
30 Agosto 2026 12:52 tempo osservato: Sereno Sereno 34 34 1016 vento: Nord S/SO 18.5
30 Agosto 2026 11:52 tempo osservato: Sereno Sereno 32 40 1017 vento: Nord S 22.2
30 Agosto 2026 10:52 tempo osservato: Sereno Sereno 29 45 1017 vento: Nord S/SO 20.3
30 Agosto 2026 09:52 tempo osservato: Sereno Sereno 28 48 1017 vento: Nord S 29.6
30 Agosto 2026 08:52 tempo osservato: Sereno Sereno 26 50 1017 vento: Nord S 22.2
30 Agosto 2026 07:52 tempo osservato: Sereno Sereno 23 56 1017 vento: Nord S 18.5
30 Agosto 2026 06:52 tempo osservato: Sereno Sereno 22 60 1017 vento: Nord S 18.5
30 Agosto 2026 05:52 tempo osservato: Sereno Sereno 22 64 1017 vento: Nord S/SE 18.5
30 Agosto 2026 04:52 tempo osservato: Sereno Sereno 22 64 1017 vento: Nord S/SE 22.2
30 Agosto 2026 03:52 tempo osservato: Sereno Sereno 22 64 1017 vento: Nord S/SE 18.5
30 Agosto 2026 02:52 tempo osservato: Sereno Sereno 22 64 1017 vento: Nord S 16.7
30 Agosto 2026 01:52 tempo osservato: Sereno Sereno 24 57 1017 vento: Nord S/SE 22.2